Hadley, Michigan
Current Conditions -  °F | °C
As of 5:34 PM on Monday 20 Oct 2014 (Local Time) from KD95 Reporting Station
Overcast Overcast  
Wind Chill: 55°   Ceiling: 2400
Heat Index: 55°   Visibility: 7mi
Dew Point: 47°   Wind: 0mph
Humidity: 75%   Direction: NA
Pressure: 29.79"   Gusts: NA
Location:  42.95°N, 83.4°W
Report Text: KD95 202134Z AUTO 00000KT 7SM OVC024 13/08 A2979 RMK AO2 T01250081
Loading
Personal Weather Stations






























Interactive Weather Map
Tropical Storm Tracking
New forecast layout! Learn more

10-Day Weather Forecast

Advertisements
Track Severe Weather on mobile